Falun, KS (67442)

4:55 PM CDT on July 27, 2016 (GMT -0500)
Lindsborg Mayor - N. Second | | Change Station

Elev 1348 ft 38.58 °N, 97.68 °W | Updated 11 minutes ago

Clear
Clear
94.1 °F
Feels Like 103 °F
N
0.0
Wind Variable Wind from ESE

Today
High -- | Low -- °F
--% Chance of Precip.
Yesterday
High -- | Low -- °F
Precip. -- in
Pressure 29.89 in
Visibility 10.0 miles
Clouds Clear
Heat Index 103 °F
Dew Point 73 °F
Humidity 50%
Rainfall 0.00 in
Snow Depth Not available.
6:28 AM 8:45 PM
Last Quarter, 39% visible
METAR KSLN 272153Z 08007KT 10SM CLR 34/19 A2994 RMK AO2 SLP122 T03390194
Pressure 29.89 in
Visibility 10.0 miles
Clouds Clear
Heat Index 103 °F
Dew Point 73 °F
Humidity 50%
Rainfall 0.00 in
Snow Depth Not available.
6:28 AM 8:45 PM
Last Quarter, 39% visible
METAR KSLN 272153Z 08007KT 10SM CLR 34/19 A2994 RMK AO2 SLP122 T03390194

10-Day Weather Forecast

Almanac

Astronomy

Jul. 27, 2016 Rise Set
Actual Time
Civil Twilight
Nautical Twilight
Astronomical Twilight
Moon
Length of Visible Light
Length of Day
Tomorrow will be .
, % of the Moon is Illuminated

Today's Extremes

State Highs State Lows

Community

WunderPhotos

Upload Photos

1,927,944 photos uploaded!

WunderBlog® & News

Nearby

Air Quality

  Air Quality AQ Index Pollutant
Not available.

Snow Depth

Station Depth Elevation

Earthquake Activity

City Distance Mag. Time & Date
Minimum magnitude displayed is 2.5.

Coastal Water Temperatures

Place Temperature

Stations

Nearby Weather Stations

Station Location Temp. Windchill Dew Point Humidity Wind Precip. Elev Updated Type
                   

Watches & Warnings

There are currently no watches in effect.